Time;durP1;ratioP1;P1;durP2;ratioP2;P2;SDS_P1;SDS_P2;PMS_P1;PMS_P2;Temp;Humidity;BMP_temperature;BMP_pressure;BME280_temperature;BME280_humidity;BME280_pressure;Samples;Min_cycle;Max_cycle;Signal;HPM_P1;HPM_P2
2022/11/14 00:02:02;;;;;;;7.60;5.67;;;7.00;99.90;;;;;;5030863;28;20453;-70
2022/11/14 00:04:47;;;;;;;7.77;5.87;;;7.00;99.90;;;;;;5043346;28;20505;-71
2022/11/14 00:07:33;;;;;;;6.00;5.37;;;6.90;99.90;;;;;;5033136;28;20508;-70
2022/11/14 00:10:18;;;;;;;6.63;5.73;;;6.90;99.90;;;;;;5052989;28;20469;-71
2022/11/14 00:13:02;;;;;;;7.30;4.80;;;6.90;99.90;;;;;;5041926;28;20833;-70
2022/11/14 00:15:53;;;;;;;5.90;5.30;;;6.90;99.90;;;;;;5031785;28;21062;-71
2022/11/14 00:18:37;;;;;;;6.87;4.87;;;6.90;99.90;;;;;;5045908;28;20470;-71
2022/11/14 00:21:21;;;;;;;5.60;4.73;;;6.80;99.90;;;;;;5032549;28;20473;-71
2022/11/14 00:24:05;;;;;;;8.23;6.10;;;6.80;99.90;;;;;;5031389;28;20457;-71
2022/11/14 00:26:49;;;;;;;5.60;4.97;;;6.80;99.90;;;;;;5031421;28;20439;-71
2022/11/14 00:29:34;;;;;;;6.27;5.13;;;6.80;99.90;;;;;;5035062;28;20458;-70
2022/11/14 00:32:19;;;;;;;7.43;6.33;;;6.80;99.90;;;;;;5031573;28;20530;-71
2022/11/14 00:35:03;;;;;;;6.40;5.10;;;6.70;99.90;;;;;;5029757;28;20462;-70
2022/11/14 00:37:48;;;;;;;7.13;5.27;;;6.70;99.90;;;;;;5026896;28;20482;-71
2022/11/14 00:40:33;;;;;;;8.30;5.50;;;6.70;99.90;;;;;;5032061;28;20979;-71
2022/11/14 00:43:17;;;;;;;5.53;5.03;;;6.70;99.90;;;;;;5029680;28;20477;-71
2022/11/14 00:46:01;;;;;;;6.37;4.90;;;6.70;99.90;;;;;;5031296;28;20542;-70
2022/11/14 00:48:46;;;;;;;5.30;4.33;;;6.70;99.90;;;;;;5021577;28;20442;-71
2022/11/14 00:51:30;;;;;;;6.20;4.77;;;6.60;99.90;;;;;;5033298;28;20869;-71
2022/11/14 00:54:14;;;;;;;6.17;4.87;;;6.60;99.90;;;;;;5036945;28;20546;-70
2022/11/14 00:56:58;;;;;;;6.17;4.87;;;6.60;99.90;;;;;;5031718;28;20509;-71
2022/11/14 00:59:42;;;;;;;5.70;4.90;;;6.60;99.90;;;;;;5035821;28;20461;-71
2022/11/14 01:02:27;;;;;;;8.13;5.30;;;6.60;99.90;;;;;;5026126;28;20859;-71
2022/11/14 01:05:11;;;;;;;5.60;4.30;;;6.50;99.90;;;;;;5041863;28;20517;-71
2022/11/14 01:07:55;;;;;;;8.20;5.93;;;6.50;99.90;;;;;;5019528;28;20494;-71
2022/11/14 01:10:41;;;;;;;9.40;6.03;;;6.50;99.90;;;;;;5011926;28;20518;-70
2022/11/14 01:13:30;;;;;;;8.63;6.00;;;6.50;99.90;;;;;;5028210;28;20493;-71
2022/11/14 01:16:14;;;;;;;5.93;4.93;;;6.40;99.90;;;;;;5022526;28;20462;-71
2022/11/14 01:18:58;;;;;;;7.47;5.20;;;6.40;99.90;;;;;;5044294;28;20509;-71
2022/11/14 01:21:42;;;;;;;9.73;5.67;;;6.40;99.90;;;;;;5054132;28;21047;-71
2022/11/14 01:24:27;;;;;;;7.77;5.33;;;6.40;99.90;;;;;;5040307;28;20454;-71
2022/11/14 01:27:11;;;;;;;11.77;6.63;;;6.40;99.90;;;;;;5031172;28;20453;-70
2022/11/14 01:29:55;;;;;;;11.63;6.50;;;6.40;99.90;;;;;;5032593;28;21007;-71
2022/11/14 01:32:39;;;;;;;7.83;6.03;;;6.40;99.90;;;;;;5030051;28;20454;-70
2022/11/14 01:35:24;;;;;;;9.27;6.30;;;6.30;99.90;;;;;;5027300;28;20505;-71
2022/11/14 01:38:12;;;;;;;10.50;8.17;;;6.30;99.90;;;;;;5036444;28;20505;-71
2022/11/14 01:40:56;;;;;;;13.73;7.40;;;6.30;99.90;;;;;;5037572;28;20499;-71
2022/11/14 01:43:41;;;;;;;13.87;7.87;;;6.30;99.90;;;;;;5029834;28;20454;-70
2022/11/14 01:46:35;;;;;;;15.20;8.43;;;6.30;99.90;;;;;;5046179;28;20446;-70
2022/11/14 01:49:31;;;;;;;14.63;8.90;;;6.30;99.90;;;;;;5029235;28;20494;-70
2022/11/14 01:52:23;;;;;;;14.60;8.53;;;6.30;99.90;;;;;;5024512;28;20501;-70
2022/11/14 01:55:08;;;;;;;11.73;7.87;;;6.20;99.90;;;;;;5038444;28;20474;-71
2022/11/14 01:57:54;;;;;;;15.60;8.87;;;6.30;99.90;;;;;;5029990;28;20963;-71
2022/11/14 02:00:38;;;;;;;14.13;8.13;;;6.20;99.90;;;;;;5036016;28;20453;-70
2022/11/14 02:03:23;;;;;;;13.80;8.20;;;6.20;99.90;;;;;;5023834;28;20458;-71
2022/11/14 02:06:11;;;;;;;14.57;9.00;;;6.20;99.90;;;;;;5027015;28;20482;-70
2022/11/14 02:08:58;;;;;;;12.47;7.90;;;6.30;99.90;;;;;;5042229;28;20453;-71
2022/11/14 02:11:44;;;;;;;17.87;9.83;;;6.30;99.90;;;;;;5030669;28;20495;-71
2022/11/14 02:14:30;;;;;;;19.17;10.27;;;6.30;99.90;;;;;;5042727;28;20472;-71
2022/11/14 02:17:16;;;;;;;16.97;8.67;;;6.30;99.90;;;;;;5037296;28;20933;-71
2022/11/14 02:20:09;;;;;;;17.80;9.50;;;6.30;99.90;;;;;;5030228;28;20482;-70
2022/11/14 02:22:54;;;;;;;21.87;9.97;;;6.30;99.90;;;;;;5029568;28;21004;-71
2022/11/14 02:25:38;;;;;;;18.63;10.40;;;6.30;99.90;;;;;;5028902;28;20828;-71
2022/11/14 02:28:23;;;;;;;19.50;9.80;;;6.30;99.90;;;;;;5027322;28;20452;-71
2022/11/14 02:31:07;;;;;;;21.97;9.23;;;6.40;99.90;;;;;;5051345;28;20570;-71
2022/11/14 02:33:52;;;;;;;19.37;10.20;;;6.40;99.90;;;;;;5036549;28;20461;-71
2022/11/14 02:36:36;;;;;;;18.90;10.27;;;6.40;99.90;;;;;;5043796;28;20513;-71
2022/11/14 02:39:21;;;;;;;18.90;10.00;;;6.40;99.90;;;;;;5029302;28;20458;-71
2022/11/14 02:42:05;;;;;;;20.40;11.07;;;6.40;99.90;;;;;;5034337;28;20466;-71
2022/11/14 02:44:49;;;;;;;17.87;9.63;;;6.40;99.90;;;;;;5028265;28;20532;-71
2022/11/14 02:47:34;;;;;;;19.70;10.80;;;6.40;99.90;;;;;;5033730;28;20450;-71
2022/11/14 02:50:18;;;;;;;22.80;11.57;;;6.40;99.90;;;;;;5035617;28;20867;-71
2022/11/14 02:53:02;;;;;;;20.10;10.37;;;6.40;99.90;;;;;;5028630;28;21034;-70
2022/11/14 02:55:46;;;;;;;17.63;9.83;;;6.40;99.90;;;;;;5030402;28;20498;-70
2022/11/14 02:58:31;;;;;;;19.80;10.90;;;6.40;99.90;;;;;;5039951;28;20457;-70
2022/11/14 03:01:15;;;;;;;22.57;10.80;;;6.50;99.90;;;;;;5027423;28;20485;-70
2022/11/14 03:03:59;;;;;;;20.57;10.73;;;6.50;99.90;;;;;;5029808;28;20524;-71
2022/11/14 03:06:43;;;;;;;19.47;10.73;;;6.50;99.90;;;;;;5031814;28;21087;-70
2022/11/14 03:09:28;;;;;;;21.07;11.13;;;6.50;99.90;;;;;;5033711;28;20473;-71
2022/11/14 03:12:15;;;;;;;24.10;10.83;;;6.50;99.90;;;;;;5029756;28;20517;-70
2022/11/14 03:15:00;;;;;;;24.47;11.17;;;6.50;99.90;;;;;;5028455;28;20610;-70
2022/11/14 03:17:44;;;;;;;20.37;10.83;;;6.50;99.90;;;;;;5028615;28;20801;-71
2022/11/14 03:20:28;;;;;;;19.97;10.63;;;6.50;99.90;;;;;;5029150;28;20459;-71
2022/11/14 03:23:12;;;;;;;23.77;11.47;;;6.50;99.90;;;;;;5033175;28;20535;-69
2022/11/14 03:26:00;;;;;;;21.47;11.73;;;6.50;99.90;;;;;;5028692;28;20501;-71
2022/11/14 03:28:45;;;;;;;27.77;13.07;;;6.50;99.90;;;;;;5028496;28;20525;-71
2022/11/14 03:31:30;;;;;;;25.63;12.10;;;6.50;99.90;;;;;;5029883;28;20450;-71
2022/11/14 03:34:14;;;;;;;26.67;12.07;;;6.50;99.90;;;;;;5026753;28;20559;-70
2022/11/14 03:36:59;;;;;;;27.60;13.00;;;6.50;99.90;;;;;;5032494;28;20512;-70
2022/11/14 03:39:43;;;;;;;27.67;13.57;;;6.60;99.90;;;;;;5028433;28;20462;-71
2022/11/14 03:42:27;;;;;;;20.27;12.00;;;6.50;99.90;;;;;;5044035;28;20507;-71
2022/11/14 03:45:11;;;;;;;22.47;11.83;;;6.60;99.90;;;;;;5027422;28;20543;-71
2022/11/14 03:47:56;;;;;;;24.27;11.70;;;6.60;99.90;;;;;;5027708;28;20534;-71
2022/11/14 03:50:41;;;;;;;21.90;11.73;;;6.60;99.90;;;;;;5029805;28;20830;-71
2022/11/14 03:53:27;;;;;;;23.57;11.63;;;6.60;99.90;;;;;;5034026;28;21105;-71
2022/11/14 03:56:11;;;;;;;22.50;11.87;;;6.60;99.90;;;;;;5038209;28;20573;-71
2022/11/14 03:58:55;;;;;;;19.10;11.37;;;6.60;99.90;;;;;;5032136;28;20503;-71
2022/11/14 04:01:39;;;;;;;25.63;11.47;;;6.60;99.90;;;;;;5027756;28;20517;-71
2022/11/14 04:04:24;;;;;;;21.93;11.90;;;6.60;99.90;;;;;;5030589;28;20450;-71
2022/11/14 04:07:08;;;;;;;23.23;11.17;;;6.60;99.90;;;;;;5029964;28;20851;-71
2022/11/14 04:09:52;;;;;;;22.73;10.20;;;6.60;99.90;;;;;;5029470;28;20450;-71
2022/11/14 04:12:36;;;;;;;24.47;10.20;;;6.60;99.90;;;;;;5044645;28;20441;-71
2022/11/14 04:15:20;;;;;;;19.30;10.87;;;6.60;99.90;;;;;;5030794;28;20490;-71
2022/11/14 04:18:04;;;;;;;20.83;10.90;;;6.60;99.90;;;;;;5032239;28;20501;-71
2022/11/14 04:20:49;;;;;;;17.70;9.37;;;6.60;99.90;;;;;;5037529;28;20482;-71
2022/11/14 04:23:33;;;;;;;19.50;11.50;;;6.60;99.90;;;;;;5030620;28;20454;-70
2022/11/14 04:26:17;;;;;;;18.87;10.00;;;6.60;99.90;;;;;;5043080;28;20549;-69
2022/11/14 04:29:02;;;;;;;21.27;10.30;;;6.60;99.90;;;;;;5037217;28;20454;-71
2022/11/14 04:31:46;;;;;;;20.23;10.50;;;6.70;99.90;;;;;;5031667;28;20462;-70
2022/11/14 04:34:30;;;;;;;16.47;9.70;;;6.70;99.90;;;;;;5026360;28;20515;-71
2022/11/14 04:37:15;;;;;;;20.67;10.63;;;6.60;99.90;;;;;;5027363;28;20482;-70
2022/11/14 04:40:01;;;;;;;19.80;10.27;;;6.60;99.90;;;;;;5032456;28;20550;-71
2022/11/14 04:42:45;;;;;;;19.77;10.60;;;6.60;99.90;;;;;;5037742;28;20978;-70
2022/11/14 04:45:29;;;;;;;19.97;11.10;;;6.70;99.90;;;;;;5026703;28;20478;-71
2022/11/14 04:48:14;;;;;;;15.47;9.73;;;6.60;99.90;;;;;;5030547;28;20450;-71
2022/11/14 04:50:58;;;;;;;17.17;8.67;;;6.60;99.90;;;;;;5018288;28;20486;-72
2022/11/14 04:53:42;;;;;;;17.10;8.73;;;6.60;99.90;;;;;;5042457;28;20613;-71
2022/11/14 04:56:28;;;;;;;19.90;9.90;;;6.60;99.90;;;;;;5049000;28;20458;-71
2022/11/14 04:59:12;;;;;;;16.33;10.03;;;6.70;99.90;;;;;;5030671;28;20527;-71
2022/11/14 05:01:56;;;;;;;15.07;8.87;;;6.70;99.90;;;;;;5032026;28;20469;-71
2022/11/14 05:04:40;;;;;;;20.90;10.80;;;6.70;99.90;;;;;;5032132;28;20450;-71
2022/11/14 05:07:25;;;;;;;18.50;10.80;;;6.70;99.90;;;;;;5030549;28;20474;-70
2022/11/14 05:10:09;;;;;;;16.50;10.60;;;6.70;99.90;;;;;;5024627;28;20500;-69
2022/11/14 05:12:54;;;;;;;16.80;9.90;;;6.70;99.90;;;;;;5033716;28;20524;-71
2022/11/14 05:15:38;;;;;;;19.77;11.00;;;6.70;99.90;;;;;;5049942;28;20449;-71
2022/11/14 05:18:23;;;;;;;17.90;10.23;;;6.70;99.90;;;;;;5038031;28;20870;-71
2022/11/14 05:21:12;;;;;;;19.87;10.40;;;6.70;99.90;;;;;;5041425;28;20450;-71
2022/11/14 05:23:56;;;;;;;24.70;10.67;;;6.70;99.90;;;;;;5043584;28;20508;-71
2022/11/14 05:26:40;;;;;;;20.17;11.10;;;6.70;99.90;;;;;;5029989;28;20513;-71
2022/11/14 05:29:25;;;;;;;18.10;9.10;;;6.70;99.90;;;;;;5029885;28;20449;-71
2022/11/14 05:32:09;;;;;;;19.03;10.83;;;6.70;99.90;;;;;;5031722;28;20858;-71
2022/11/14 05:34:53;;;;;;;17.83;10.13;;;6.70;99.90;;;;;;5023977;28;20486;-71
2022/11/14 05:37:37;;;;;;;19.03;10.50;;;6.80;99.90;;;;;;5028059;28;20494;-71
2022/11/14 05:40:21;;;;;;;22.43;11.93;;;6.70;99.90;;;;;;5041628;28;20497;-72
2022/11/14 05:43:05;;;;;;;17.17;9.67;;;6.80;99.90;;;;;;5043690;28;20995;-71
2022/11/14 05:45:50;;;;;;;19.50;9.63;;;6.70;99.90;;;;;;5029865;28;20449;-70
2022/11/14 05:48:35;;;;;;;21.13;10.13;;;6.70;99.90;;;;;;5024695;28;20446;-71
2022/11/14 05:51:19;;;;;;;19.00;9.10;;;6.70;99.90;;;;;;5033422;28;20497;-71
2022/11/14 05:54:04;;;;;;;16.37;9.10;;;6.70;99.90;;;;;;5011368;28;20563;-71
2022/11/14 05:56:48;;;;;;;12.77;7.93;;;6.80;99.90;;;;;;5030444;28;20534;-71
2022/11/14 05:59:32;;;;;;;17.70;9.30;;;6.80;99.90;;;;;;5024949;28;20538;-71
2022/11/14 06:02:16;;;;;;;17.50;10.87;;;6.80;99.90;;;;;;5029676;28;20454;-70
2022/11/14 06:05:00;;;;;;;16.53;9.93;;;6.80;99.90;;;;;;5035667;28;20467;-71
2022/11/14 06:07:45;;;;;;;18.63;10.97;;;6.80;99.90;;;;;;5049331;28;20469;-71
2022/11/14 06:10:30;;;;;;;17.97;10.27;;;6.80;99.90;;;;;;5042252;28;20511;-72
2022/11/14 06:13:14;;;;;;;19.73;11.10;;;6.80;99.90;;;;;;5029265;28;20832;-70
2022/11/14 06:16:03;;;;;;;18.90;9.57;;;6.80;99.90;;;;;;5036203;28;20462;-71
2022/11/14 06:18:51;;;;;;;20.10;10.80;;;6.80;99.90;;;;;;5027830;28;20522;-71
2022/11/14 06:21:35;;;;;;;19.50;10.97;;;6.80;99.90;;;;;;5028670;28;20490;-71
2022/11/14 06:24:19;;;;;;;19.47;10.93;;;6.80;99.90;;;;;;5029659;28;20457;-71
2022/11/14 06:27:03;;;;;;;17.60;9.50;;;6.80;99.90;;;;;;5029815;28;20465;-70
2022/11/14 06:29:48;;;;;;;16.37;9.70;;;6.80;99.90;;;;;;5040292;28;20911;-71
2022/11/14 06:32:32;;;;;;;21.87;11.20;;;6.80;99.90;;;;;;5027941;28;20585;-70
2022/11/14 06:35:16;;;;;;;20.17;10.87;;;6.90;99.90;;;;;;5029258;28;20494;-69
2022/11/14 06:38:00;;;;;;;22.23;10.23;;;6.80;99.90;;;;;;5030392;28;20556;-71
2022/11/14 06:40:44;;;;;;;29.70;11.03;;;6.90;99.90;;;;;;5035431;28;20465;-71
2022/11/14 06:43:32;;;;;;;21.87;10.40;;;6.90;99.90;;;;;;5043238;28;20471;-71
2022/11/14 06:46:18;;;;;;;20.83;12.03;;;6.80;99.90;;;;;;5023585;28;20491;-71
2022/11/14 06:49:03;;;;;;;21.73;10.97;;;6.80;99.90;;;;;;5028149;28;20462;-70
2022/11/14 06:51:47;;;;;;;14.80;9.90;;;6.80;99.90;;;;;;5034793;28;20771;-71
2022/11/14 06:54:31;;;;;;;16.73;9.60;;;6.80;99.90;;;;;;5032368;28;20498;-71
2022/11/14 06:57:16;;;;;;;17.27;10.37;;;6.90;99.90;;;;;;5025010;28;20454;-71
2022/11/14 07:00:00;;;;;;;21.60;10.33;;;6.80;99.90;;;;;;5036053;28;20465;-71
2022/11/14 07:02:45;;;;;;;19.40;11.00;;;6.80;99.90;;;;;;5038785;28;21027;-71
2022/11/14 07:05:29;;;;;;;21.20;11.60;;;6.80;99.90;;;;;;5037423;28;21032;-71
2022/11/14 07:08:14;;;;;;;19.87;10.93;;;6.80;99.90;;;;;;5036761;28;20465;-72
2022/11/14 07:11:08;;;;;;;22.07;11.10;;;6.80;99.90;;;;;;5031765;28;20513;-72
2022/11/14 07:13:53;;;;;;;17.40;10.70;;;6.80;99.90;;;;;;5031595;28;20883;-72
2022/11/14 07:16:37;;;;;;;19.87;10.17;;;6.80;99.90;;;;;;5037416;28;20486;-71
2022/11/14 07:19:21;;;;;;;22.80;12.00;;;6.80;99.90;;;;;;5044345;28;20523;-70
2022/11/14 07:22:05;;;;;;;21.87;11.47;;;6.80;99.90;;;;;;5033828;28;20578;-71
2022/11/14 07:24:50;;;;;;;25.27;11.47;;;6.80;99.90;;;;;;5028910;28;20487;-71
2022/11/14 07:27:34;;;;;;;17.67;10.67;;;6.90;99.90;;;;;;5039363;28;20511;-71
2022/11/14 07:30:18;;;;;;;19.43;11.07;;;6.80;99.90;;;;;;5031144;28;20458;-71
2022/11/14 07:33:02;;;;;;;14.23;9.97;;;6.80;99.90;;;;;;5033394;28;21101;-72
2022/11/14 07:35:47;;;;;;;20.87;12.13;;;6.80;99.90;;;;;;5032237;28;20446;-71
2022/11/14 07:38:31;;;;;;;19.60;11.80;;;6.80;99.90;;;;;;5036834;28;20458;-71
2022/11/14 07:41:17;;;;;;;18.10;10.37;;;6.80;99.90;;;;;;5017224;28;20813;-70
2022/11/14 07:44:01;;;;;;;25.57;12.97;;;6.90;99.90;;;;;;5033992;28;20454;-71
2022/11/14 07:46:45;;;;;;;21.23;11.50;;;6.90;99.90;;;;;;5036194;28;20445;-71
2022/11/14 07:49:30;;;;;;;21.03;11.90;;;6.80;99.90;;;;;;5026809;28;20859;-72
2022/11/14 07:52:14;;;;;;;19.40;12.20;;;6.90;99.90;;;;;;5035540;28;20462;-70
2022/11/14 07:54:58;;;;;;;20.20;11.37;;;6.90;99.90;;;;;;5051653;28;20472;-71
2022/11/14 07:57:43;;;;;;;15.77;9.90;;;6.90;99.90;;;;;;5032562;28;20581;-70
2022/11/14 08:00:27;;;;;;;24.40;10.80;;;6.90;99.90;;;;;;5035891;28;20533;-71
2022/11/14 08:03:12;;;;;;;23.93;10.80;;;6.90;99.90;;;;;;5048054;28;20528;-71
2022/11/14 08:06:01;;;;;;;21.23;11.80;;;6.90;99.90;;;;;;5038198;28;21119;-71
2022/11/14 08:08:45;;;;;;;22.73;11.07;;;6.90;99.90;;;;;;5039165;28;20504;-71
2022/11/14 08:11:48;;;;;;;16.37;9.83;;;6.90;99.90;;;;;;5037673;28;20593;-71
2022/11/14 08:14:33;;;;;;;19.73;11.17;;;6.90;99.90;;;;;;5027271;28;20477;-70
2022/11/14 08:17:18;;;;;;;19.90;10.60;;;7.00;99.90;;;;;;5029548;28;20454;-70
2022/11/14 08:20:07;;;;;;;18.13;10.50;;;6.90;99.90;;;;;;5031335;28;20516;-71
2022/11/14 08:22:52;;;;;;;18.57;11.60;;;7.00;99.90;;;;;;5037425;28;20452;-71
2022/11/14 08:25:37;;;;;;;17.13;11.33;;;7.00;99.90;;;;;;5033326;28;20883;-71
2022/11/14 08:28:21;;;;;;;22.20;11.17;;;7.00;99.90;;;;;;5047533;28;20497;-70
2022/11/14 08:31:05;;;;;;;18.20;11.00;;;6.90;99.90;;;;;;5044820;28;20478;-71
2022/11/14 08:33:52;;;;;;;26.10;10.50;;;6.90;99.90;;;;;;5036020;28;20481;-71
2022/11/14 08:36:37;;;;;;;20.00;10.90;;;6.90;99.90;;;;;;5038330;28;21019;-71
2022/11/14 08:39:21;;;;;;;25.83;11.60;;;6.90;99.90;;;;;;5041457;28;20458;-71
2022/11/14 08:42:05;;;;;;;18.80;10.17;;;6.90;99.90;;;;;;5038804;28;20458;-71
2022/11/14 08:44:50;;;;;;;20.20;10.70;;;6.90;99.90;;;;;;5030767;28;20533;-70
2022/11/14 08:47:34;;;;;;;15.77;10.20;;;6.90;99.90;;;;;;5030306;28;20554;-70
2022/11/14 08:50:19;;;;;;;21.13;11.30;;;6.90;99.90;;;;;;5032534;28;20478;-71
2022/11/14 08:53:03;;;;;;;18.53;10.97;;;7.00;99.90;;;;;;5046339;28;20959;-70
2022/11/14 08:55:48;;;;;;;17.20;10.57;;;7.00;99.90;;;;;;5032024;28;20470;-71
2022/11/14 08:58:32;;;;;;;20.13;11.70;;;7.00;99.90;;;;;;5038171;28;20453;-70
2022/11/14 09:01:17;;;;;;;17.47;11.27;;;7.00;99.90;;;;;;5032282;28;20458;-71
2022/11/14 09:04:01;;;;;;;15.87;11.33;;;7.00;99.90;;;;;;5029948;28;20873;-72
2022/11/14 09:06:45;;;;;;;17.90;10.97;;;7.00;99.90;;;;;;5035724;28;20470;-71
2022/11/14 09:09:30;;;;;;;17.80;11.17;;;7.00;99.90;;;;;;5030674;28;20462;-71
2022/11/14 09:12:14;;;;;;;16.27;9.97;;;7.00;99.90;;;;;;5037770;28;20535;-71
2022/11/14 09:14:58;;;;;;;18.20;11.10;;;7.00;99.90;;;;;;5038322;28;20616;-72
2022/11/14 09:17:42;;;;;;;17.13;10.27;;;7.00;99.90;;;;;;5040451;28;20534;-71
2022/11/14 09:20:29;;;;;;;19.27;11.17;;;7.00;99.90;;;;;;5043627;28;20465;-71
2022/11/14 09:23:13;;;;;;;19.60;11.07;;;7.00;99.90;;;;;;5042043;28;20473;-71
2022/11/14 09:25:57;;;;;;;19.50;11.27;;;7.00;99.90;;;;;;5030201;28;20450;-71
2022/11/14 09:28:42;;;;;;;30.80;11.37;;;7.00;99.90;;;;;;5030631;28;20455;-71
2022/11/14 09:31:26;;;;;;;19.80;11.00;;;7.00;99.90;;;;;;5047500;28;20454;-71
2022/11/14 09:34:11;;;;;;;20.07;12.10;;;7.00;99.90;;;;;;5044201;28;20479;-71
2022/11/14 09:36:55;;;;;;;16.87;11.20;;;7.10;99.90;;;;;;5031426;28;21380;-70
2022/11/14 09:39:39;;;;;;;19.60;11.43;;;7.10;99.90;;;;;;5042531;28;20463;-71
2022/11/14 09:42:45;;;;;;;14.93;10.30;;;7.10;99.90;;;;;;5019760;28;20470;-71
2022/11/14 09:45:30;;;;;;;20.67;12.40;;;7.10;99.90;;;;;;5032147;28;20462;-71
2022/11/14 09:48:20;;;;;;;17.27;10.43;;;7.10;99.90;;;;;;5037804;28;20457;-71
2022/11/14 09:51:12;;;;;;;16.60;10.33;;;7.10;99.90;;;;;;5043349;28;20478;-71
2022/11/14 09:54:15;;;;;;;20.03;12.20;;;7.10;99.90;;;;;;5043142;28;20470;-71
2022/11/14 09:57:00;;;;;;;15.10;9.90;;;7.20;99.90;;;;;;5038318;28;20466;-71
2022/11/14 09:59:44;;;;;;;16.53;10.97;;;7.20;99.90;;;;;;5032953;28;20458;-71
2022/11/14 10:02:36;;;;;;;22.57;14.10;;;7.20;99.90;;;;;;5047479;28;20478;-72
2022/11/14 10:05:50;;;;;;;18.90;12.20;;;7.20;99.90;;;;;;5043929;28;20903;-70
2022/11/14 10:08:44;;;;;;;24.43;13.37;;;7.20;99.90;;;;;;5025598;28;20498;-71
2022/11/14 10:11:35;;;;;;;22.77;13.90;;;7.30;99.90;;;;;;5029440;28;20533;-71
2022/11/14 10:14:46;;;;;;;23.57;14.63;;;7.30;99.90;;;;;;5049483;28;20481;-70
2022/11/14 10:17:39;;;;;;;22.93;13.83;;;7.30;99.90;;;;;;5053445;28;20454;-71
2022/11/14 10:20:46;;;;;;;22.90;13.60;;;7.30;99.90;;;;;;5040346;28;20462;-71
2022/11/14 10:24:13;;;;;;;25.80;14.23;;;7.30;99.90;;;;;;5024386;28;20553;-70
2022/11/14 10:26:57;;;;;;;31.50;17.57;;;7.30;99.90;;;;;;5022157;28;20504;-71
2022/11/14 10:29:53;;;;;;;41.10;23.80;;;7.40;99.90;;;;;;5029575;28;20513;-71
2022/11/14 10:33:01;;;;;;;38.37;22.90;;;7.40;99.90;;;;;;5048113;28;20467;-71
2022/11/14 10:36:05;;;;;;;33.27;22.57;;;7.40;99.90;;;;;;5027229;28;21087;-71
2022/11/14 10:39:15;;;;;;;34.97;20.03;;;7.40;99.90;;;;;;5040196;28;20499;-71
2022/11/14 10:42:08;;;;;;;28.60;16.27;;;7.40;99.90;;;;;;5031720;28;20588;-71
2022/11/14 10:45:09;;;;;;;24.47;16.17;;;7.50;99.90;;;;;;5025495;28;20450;-71
2022/11/14 10:47:59;;;;;;;32.27;19.87;;;7.50;99.90;;;;;;5021858;28;20501;-71
2022/11/14 10:50:55;;;;;;;27.53;19.10;;;7.50;99.90;;;;;;5031469;28;20446;-72
2022/11/14 10:53:44;;;;;;;25.20;16.60;;;7.60;99.90;;;;;;5025710;28;20501;-70
2022/11/14 10:56:28;;;;;;;21.07;14.43;;;7.60;99.90;;;;;;5035889;28;20975;-71
2022/11/14 10:59:13;;;;;;;21.50;13.27;;;7.60;99.90;;;;;;5030978;28;20451;-71
2022/11/14 11:01:57;;;;;;;24.07;13.30;;;7.60;99.90;;;;;;5030949;28;20462;-72
2022/11/14 11:04:44;;;;;;;20.50;14.33;;;7.70;99.90;;;;;;5043735;28;20543;-71
2022/11/14 11:13:47;;;;;;;31.77;22.30;;;7.70;99.90;;;;;;5031172;28;20523;-71
2022/11/14 11:16:31;;;;;;;44.50;24.23;;;7.70;99.90;;;;;;5028150;28;20474;-72
2022/11/14 11:19:23;;;;;;;44.90;23.37;;;7.80;99.90;;;;;;5032014;28;20459;-71
2022/11/14 11:22:28;;;;;;;77.80;34.90;;;7.80;99.90;;;;;;5030156;28;20589;-71
2022/11/14 11:25:28;;;;;;;73.73;36.37;;;7.90;99.90;;;;;;5033396;28;20509;-72
2022/11/14 11:28:16;;;;;;;64.23;31.90;;;7.90;99.90;;;;;;5032183;28;20493;-71
2022/11/14 11:31:03;;;;;;;41.07;22.60;;;8.00;99.90;;;;;;5039177;28;20449;-71
2022/11/14 11:33:48;;;;;;;32.20;17.00;;;8.10;99.90;;;;;;5040894;28;20491;-71
2022/11/14 11:36:48;;;;;;;30.27;17.37;;;8.20;99.90;;;;;;5036054;28;20445;-70
2022/11/14 11:39:41;;;;;;;35.97;17.00;;;8.20;99.90;;;;;;5032592;28;20445;-70
2022/11/14 11:42:44;;;;;;;29.70;16.60;;;8.30;99.90;;;;;;5062922;28;20469;-72
2022/11/14 11:45:29;;;;;;;27.43;15.30;;;8.30;99.90;;;;;;5035815;28;20458;-72
2022/11/14 11:48:21;;;;;;;27.90;15.97;;;8.40;99.90;;;;;;5034359;28;20453;-72
2022/11/14 11:51:14;;;;;;;23.33;14.40;;;8.40;99.90;;;;;;5028866;28;20461;-71
2022/11/14 11:54:05;;;;;;;20.20;13.60;;;8.40;99.90;;;;;;5039179;28;20501;-72
2022/11/14 11:56:57;;;;;;;16.17;10.90;;;8.50;99.90;;;;;;5040188;28;20588;-71
2022/11/14 11:59:48;;;;;;;16.90;11.60;;;8.50;99.90;;;;;;5035781;28;20459;-72
2022/11/14 12:02:38;;;;;;;13.37;9.80;;;8.50;99.90;;;;;;5037394;28;21030;-71
2022/11/14 12:06:00;;;;;;;16.10;9.33;;;8.60;99.90;;;;;;5030382;28;20458;-72
2022/11/14 12:08:50;;;;;;;13.80;9.30;;;8.60;99.90;;;;;;5038158;28;20457;-71
2022/11/14 12:11:38;;;;;;;15.20;9.27;;;8.60;99.90;;;;;;5046251;28;20482;-71
2022/11/14 12:14:48;;;;;;;14.13;8.97;;;8.60;99.90;;;;;;5025346;28;20529;-71
2022/11/14 12:18:08;;;;;;;13.73;8.83;;;8.60;99.90;;;;;;5029360;28;20470;-71
2022/11/14 12:21:15;;;;;;;12.90;8.80;;;8.70;99.90;;;;;;5056592;28;20866;-72
2022/11/14 12:24:31;;;;;;;17.37;10.67;;;8.70;99.90;;;;;;5035489;28;20458;-72
2022/11/14 12:27:18;;;;;;;14.63;9.40;;;8.70;99.90;;;;;;5037558;28;20509;-71
2022/11/14 12:30:20;;;;;;;16.27;10.20;;;8.70;99.90;;;;;;5041961;28;20516;-71
2022/11/14 12:33:26;;;;;;;12.87;9.07;;;8.80;99.90;;;;;;5032963;28;20541;-71
2022/11/14 12:36:12;;;;;;;15.43;9.40;;;8.80;99.90;;;;;;5024754;28;20550;-72
2022/11/14 12:38:58;;;;;;;13.77;8.97;;;8.80;99.90;;;;;;5035969;28;20525;-71
2022/11/14 12:41:42;;;;;;;15.00;8.63;;;8.80;99.90;;;;;;5023280;28;20454;-72
2022/11/14 12:44:26;;;;;;;17.10;10.10;;;8.80;99.90;;;;;;5033862;28;20556;-72
2022/11/14 12:47:19;;;;;;;13.60;8.30;;;8.80;99.90;;;;;;5034880;28;20581;-72
2022/11/14 12:50:24;;;;;;;13.67;9.20;;;8.80;99.90;;;;;;5032073;28;20496;-71
2022/11/14 12:53:36;;;;;;;18.53;10.00;;;8.80;99.90;;;;;;5033239;28;20461;-72
2022/11/14 12:56:29;;;;;;;13.40;9.23;;;8.80;99.90;;;;;;5040103;28;20469;-69
2022/11/14 12:59:38;;;;;;;14.77;9.70;;;8.80;99.90;;;;;;5041257;28;20465;-71
2022/11/14 13:02:45;;;;;;;10.30;7.20;;;8.80;99.90;;;;;;5043868;28;20486;-72
2022/11/14 13:05:47;;;;;;;13.00;8.73;;;8.80;99.90;;;;;;5036287;28;20458;-72
2022/11/14 13:08:37;;;;;;;15.20;8.27;;;8.80;99.90;;;;;;5041361;28;20986;-72
2022/11/14 13:21:46;;;;;;;13.00;8.87;;;8.90;99.90;;;;;;5036150;28;20478;-72
2022/11/14 13:25:00;;;;;;;14.70;8.97;;;8.90;99.90;;;;;;5036221;28;20594;-73
2022/11/14 13:27:46;;;;;;;12.53;7.90;;;8.90;99.90;;;;;;5040853;28;20488;-71
2022/11/14 13:31:14;;;;;;;14.50;9.53;;;8.90;99.90;;;;;;5032589;28;20458;-72
2022/11/14 13:34:00;;;;;;;10.63;7.00;;;8.90;99.90;;;;;;5029671;28;20481;-72
2022/11/14 13:37:01;;;;;;;12.20;8.80;;;8.90;99.90;;;;;;5033266;28;20512;-72
2022/11/14 13:39:49;;;;;;;14.70;8.87;;;8.90;99.90;;;;;;5042825;28;20466;-72
2022/11/14 13:42:59;;;;;;;13.90;8.57;;;8.90;99.90;;;;;;5034076;28;20465;-72
2022/11/14 13:46:10;;;;;;;12.13;7.70;;;9.00;99.90;;;;;;5032588;28;20907;-72
2022/11/14 13:49:32;;;;;;;11.70;7.80;;;8.90;99.90;;;;;;5029133;28;20490;-72
2022/11/14 13:52:17;;;;;;;8.70;7.07;;;8.90;99.90;;;;;;5055146;28;21019;-70
2022/11/14 13:55:01;;;;;;;11.03;8.40;;;9.00;99.90;;;;;;5035836;28;20470;-72
2022/11/14 13:58:06;;;;;;;13.63;8.60;;;9.00;99.90;;;;;;5047921;28;20466;-71
2022/11/14 14:00:59;;;;;;;13.80;8.27;;;9.00;99.90;;;;;;5030593;28;20477;-72
2022/11/14 14:03:47;;;;;;;11.80;7.50;;;9.00;99.90;;;;;;5035693;28;20466;-72
2022/11/14 14:06:47;;;;;;;10.90;7.20;;;9.00;99.90;;;;;;5037161;28;20450;-72
2022/11/14 14:09:52;;;;;;;14.93;7.40;;;9.10;99.90;;;;;;5035621;28;20544;-71
2022/11/14 14:12:59;;;;;;;12.20;8.23;;;9.10;99.90;;;;;;5017793;28;20977;-71
2022/11/14 14:16:02;;;;;;;12.97;8.03;;;9.10;99.90;;;;;;5043966;28;20463;-72
2022/11/14 14:19:11;;;;;;;10.97;7.23;;;9.10;99.90;;;;;;5037735;28;20457;-71
2022/11/14 14:22:19;;;;;;;12.63;6.90;;;9.10;99.90;;;;;;5010588;28;20455;-72
2022/11/14 14:25:15;;;;;;;10.50;6.87;;;9.20;99.90;;;;;;5031914;28;20441;-71
2022/11/14 14:28:09;;;;;;;7.80;6.07;;;9.20;99.90;;;;;;5030390;28;20458;-72
2022/11/14 14:31:11;;;;;;;9.40;6.10;;;9.20;99.90;;;;;;5045706;28;20489;-71
2022/11/14 14:33:55;;;;;;;8.37;6.30;;;9.20;99.90;;;;;;5020238;28;20461;-72
2022/11/14 14:36:51;;;;;;;8.50;6.60;;;9.20;99.90;;;;;;5037692;28;20824;-71
2022/11/14 14:39:35;;;;;;;8.27;6.00;;;9.20;99.90;;;;;;5032624;28;20489;-71
2022/11/14 14:42:20;;;;;;;10.90;5.60;;;9.20;99.90;;;;;;5036103;28;20466;-72
2022/11/14 14:45:14;;;;;;;9.70;6.83;;;9.20;99.90;;;;;;5035307;28;20470;-71
2022/11/14 14:48:16;;;;;;;9.47;6.83;;;9.20;99.90;;;;;;5028868;28;20561;-72
2022/11/14 14:51:08;;;;;;;13.57;8.17;;;9.20;99.90;;;;;;5035531;28;20450;-72